Terminal Aerodrome Forecast
Issued by NWS

Home | Current Version | Previous Version | Text Only | Print | Product List | Glossary On
Versions: 1 2 3 4 5 6 7 8 9 10
000
FTUS42 TJSJ 261100
TAFIST
TAF
TIST 261129Z 2612/2712 09006KT P6SM VCSH SCT080
     FM261300 08012G19KT P6SM VCSH SCT025 SCT035
     FM262300 07008KT P6SM FEW025
      AMD NOT SKED=

USA.gov is the U.S. government's official web portal to all federal, state and local government web resources and services.